Time;durP1;ratioP1;P1;durP2;ratioP2;P2;SDS_P1;SDS_P2;PMS_P1;PMS_P2;Temp;Humidity;BMP_temperature;BMP_pressure;BME280_temperature;BME280_humidity;BME280_pressure;Samples;Min_cycle;Max_cycle;Signal;HPM_P1;HPM_P2
2022/06/08 00:02:27;;;;;;;;;;;11.20;99.40;;;;;;5033075;28;20261;-75
2022/06/08 00:04:54;;;;;;;;;;;11.20;99.60;;;;;;5033039;28;20398;-74
2022/06/08 00:07:20;;;;;;;;;;;11.20;99.50;;;;;;5032846;28;19909;-75
2022/06/08 00:09:47;;;;;;;;;;;11.20;99.10;;;;;;5032813;28;19945;-74
2022/06/08 00:12:14;;;;;;;;;;;11.10;99.40;;;;;;5032899;28;20279;-75
2022/06/08 00:14:41;;;;;;;;;;;11.20;99.80;;;;;;5033074;28;20265;-75
2022/06/08 00:17:08;;;;;;;;;;;11.30;99.80;;;;;;5032968;28;19909;-75
2022/06/08 00:19:35;;;;;;;;;;;11.30;99.40;;;;;;5032717;28;19909;-75
2022/06/08 00:22:02;;;;;;;;;;;11.40;99.20;;;;;;5032861;28;19913;-74
2022/06/08 00:24:29;;;;;;;;;;;11.40;99.10;;;;;;5032951;28;19917;-74
2022/06/08 00:26:55;;;;;;;;;;;11.50;99.00;;;;;;5033041;28;19913;-75
2022/06/08 00:29:22;;;;;;;;;;;11.50;99.10;;;;;;5032891;28;19992;-74
2022/06/08 00:31:49;;;;;;;;;;;11.60;99.30;;;;;;5032520;28;19909;-74
2022/06/08 00:34:16;;;;;;;;;;;11.60;99.20;;;;;;5032614;28;19909;-75
2022/06/08 00:36:43;;;;;;;;;;;11.60;98.60;;;;;;5032608;28;20023;-75
2022/06/08 00:39:10;;;;;;;;;;;11.70;98.50;;;;;;5015017;28;19909;-75
2022/06/08 00:41:39;;;;;;;;;;;11.70;98.00;;;;;;5033688;28;19909;-75
2022/06/08 00:44:10;;;;;;;;;;;11.70;98.70;;;;;;5036507;28;19917;-74
2022/06/08 00:46:37;;;;;;;;;;;11.70;98.40;;;;;;5036284;28;19956;-74
2022/06/08 00:49:12;;;;;;;;;;;11.90;98.30;;;;;;5036485;28;19913;-74
2022/06/08 00:51:39;;;;;;;;;;;12.00;97.80;;;;;;5035881;28;20003;-73
2022/06/08 00:54:07;;;;;;;;;;;12.00;97.80;;;;;;5036328;28;19996;-75
2022/06/08 00:56:39;;;;;;;;;;;12.00;97.50;;;;;;5036084;28;19964;-73
2022/06/08 00:59:08;;;;;;;;;;;12.20;97.80;;;;;;5036159;28;19962;-74
2022/06/08 01:01:34;;;;;;;;;;;12.40;97.80;;;;;;5035959;28;19939;-74
2022/06/08 01:04:09;;;;;;;;;;;12.60;98.00;;;;;;5035987;28;19925;-74
2022/06/08 01:06:36;;;;;;;;;;;13.00;97.30;;;;;;5035742;28;19924;-74
2022/06/08 01:09:03;;;;;;;;;;;13.40;96.70;;;;;;5036018;28;19932;-74
2022/06/08 01:11:39;;;;;;;;;;;13.40;96.20;;;;;;5035849;28;19916;-74
2022/06/08 01:14:08;;;;;;;;;;;13.40;96.50;;;;;;5035962;28;20276;-74
2022/06/08 01:16:35;;;;;;;;;;;13.40;96.30;;;;;;5035719;28;19935;-74
2022/06/08 01:19:03;;;;;;;;;;;13.60;96.70;;;;;;5051058;28;19984;-74
2022/06/08 01:21:30;;;;;;;;;;;13.60;96.20;;;;;;5035595;28;20291;-73
2022/06/08 01:24:00;;;;;;;;;;;13.40;95.30;;;;;;5035599;28;20004;-74
2022/06/08 01:26:39;;;;;;;;;;;13.20;96.20;;;;;;5035690;28;19909;-74
2022/06/08 01:29:16;;;;;;;;;;;13.10;96.10;;;;;;5035550;28;20493;-74
2022/06/08 01:32:01;;;;;;;;;;;13.10;96.00;;;;;;5035200;28;19909;-74
2022/06/08 01:34:46;;;;;;;;;;;13.00;95.50;;;;;;5035636;28;19917;-75
2022/06/08 01:37:28;;;;;;;;;;;12.90;96.00;;;;;;5035315;28;19916;-74
2022/06/08 01:40:07;;;;;;;;;;;13.00;96.40;;;;;;5035276;28;20401;-74
2022/06/08 01:42:37;;;;;;;;;;;13.00;96.00;;;;;;5035469;28;19921;-75
2022/06/08 01:45:33;;;;;;;;;;;13.00;95.30;;;;;;5035360;28;20043;-75
2022/06/08 01:48:02;;;;;;;;;;;12.90;96.00;;;;;;5035393;28;19909;-74
2022/06/08 01:50:35;;;;;;;;;;;13.00;95.80;;;;;;5035061;28;19955;-75
2022/06/08 01:53:08;;;;;;;;;;;13.10;97.00;;;;;;5034918;28;19929;-75
2022/06/08 01:55:46;;;;;;;;;;;13.10;96.80;;;;;;5034886;28;19920;-75
2022/06/08 01:58:17;;;;;;;;;;;13.10;96.00;;;;;;5035043;28;20360;-74
2022/06/08 02:00:57;;;;;;;;;;;13.10;95.80;;;;;;5050264;28;20275;-75
2022/06/08 02:03:33;;;;;;;;;;;13.10;95.80;;;;;;5034905;28;19963;-74
2022/06/08 02:06:06;;;;;;;;;;;13.10;95.70;;;;;;5034654;28;20328;-75
2022/06/08 02:08:53;;;;;;;;;;;13.10;95.70;;;;;;5034763;28;19909;-74
2022/06/08 02:11:35;;;;;;;;;;;13.10;96.20;;;;;;5027471;28;20328;-75
2022/06/08 02:14:16;;;;;;;;;;;13.10;95.70;;;;;;5034483;28;19977;-74
2022/06/08 02:16:48;;;;;;;;;;;13.10;95.30;;;;;;5034660;28;20320;-76
2022/06/08 02:19:24;;;;;;;;;;;13.10;95.90;;;;;;5034791;28;20000;-73
2022/06/08 02:21:56;;;;;;;;;;;13.10;95.50;;;;;;5030903;28;19910;-74
2022/06/08 02:24:31;;;;;;;;;;;13.20;95.70;;;;;;5014606;28;20375;-75
2022/06/08 02:27:24;;;;;;;;;;;13.30;95.70;;;;;;5034322;28;19913;-75
2022/06/08 02:29:50;;;;;;;;;;;13.20;95.20;;;;;;5032045;28;19909;-74
2022/06/08 02:35:08;;;;;;;;;;;13.30;94.10;;;;;;5034635;28;19939;-74
2022/06/08 02:37:36;;;;;;;;;;;13.30;95.10;;;;;;5034148;28;19913;-75
2022/06/08 02:40:13;;;;;;;;;;;13.20;94.00;;;;;;5034282;28;20348;-74
2022/06/08 02:42:42;;;;;;;;;;;13.20;94.30;;;;;;5034152;28;19971;-74
2022/06/08 02:45:17;;;;;;;;;;;13.20;94.30;;;;;;5033868;28;20004;-74
2022/06/08 02:47:45;;;;;;;;;;;13.30;94.20;;;;;;5033800;28;19909;-74
2022/06/08 02:50:17;;;;;;;;;;;13.30;94.30;;;;;;5034024;28;20020;-74
2022/06/08 02:52:45;;;;;;;;;;;13.30;94.40;;;;;;5033635;28;19925;-74
2022/06/08 02:55:32;;;;;;;;;;;13.30;95.20;;;;;;5034071;28;19909;-74
2022/06/08 02:58:02;;;;;;;;;;;13.30;94.00;;;;;;5033631;28;19916;-74
2022/06/08 03:00:31;;;;;;;;;;;13.40;94.40;;;;;;5033920;28;19936;-74
2022/06/08 03:03:18;;;;;;;;;;;13.40;94.70;;;;;;5033843;28;19913;-75
2022/06/08 03:05:48;;;;;;;;;;;13.40;94.70;;;;;;5033041;28;20000;-74
2022/06/08 03:08:19;;;;;;;;;;;13.40;94.20;;;;;;5033782;28;19909;-74
2022/06/08 03:10:47;;;;;;;;;;;13.40;94.50;;;;;;5049047;28;20288;-75
2022/06/08 03:13:20;;;;;;;;;;;13.40;94.50;;;;;;5033785;28;19913;-75
2022/06/08 03:15:55;;;;;;;;;;;13.50;94.40;;;;;;5033133;28;19917;-74
2022/06/08 03:18:22;;;;;;;;;;;13.50;93.40;;;;;;5033540;28;19909;-74
2022/06/08 03:20:49;;;;;;;;;;;13.50;93.30;;;;;;5033447;28;20039;-75
2022/06/08 03:23:15;;;;;;;;;;;13.50;92.90;;;;;;5033551;28;19921;-72
2022/06/08 03:25:42;;;;;;;;;;;13.50;93.00;;;;;;5033227;28;19985;-77
2022/06/08 03:28:09;;;;;;;;;;;13.50;93.10;;;;;;5033417;28;19909;-73
2022/06/08 03:30:35;;;;;;;;;;;13.50;92.90;;;;;;5033411;28;19910;-72
2022/06/08 03:33:02;;;;;;;;;;;13.50;93.00;;;;;;5033407;28;19945;-74
2022/06/08 03:35:29;;;;;;;;;;;13.50;92.90;;;;;;5033299;28;19915;-72
2022/06/08 03:37:56;;;;;;;;;;;13.60;92.60;;;;;;5033198;28;19946;-72
2022/06/08 03:40:22;;;;;;;;;;;13.60;93.00;;;;;;5032883;28;19995;-74
2022/06/08 03:42:49;;;;;;;;;;;13.50;93.10;;;;;;5033162;28;19963;-74
2022/06/08 03:45:16;;;;;;;;;;;13.60;93.40;;;;;;5032814;28;19909;-74
2022/06/08 03:47:45;;;;;;;;;;;13.60;93.70;;;;;;5032955;28;19909;-73
2022/06/08 03:50:14;;;;;;;;;;;13.60;93.70;;;;;;5032861;28;20268;-73
2022/06/08 03:52:43;;;;;;;;;;;13.60;92.90;;;;;;5032814;28;20284;-75
2022/06/08 03:55:10;;;;;;;;;;;13.50;93.50;;;;;;5033213;28;19910;-74
2022/06/08 03:57:37;;;;;;;;;;;13.60;93.20;;;;;;5032994;28;19924;-74
2022/06/08 04:00:05;;;;;;;;;;;13.60;93.30;;;;;;5033188;28;20058;-74
2022/06/08 04:02:32;;;;;;;;;;;13.60;93.60;;;;;;5033182;28;19921;-74
2022/06/08 04:04:59;;;;;;;;;;;13.60;94.10;;;;;;5033566;28;20410;-73
2022/06/08 04:07:26;;;;;;;;;;;13.60;93.70;;;;;;5033275;28;19909;-72
2022/06/08 04:09:52;;;;;;;;;;;13.70;93.40;;;;;;5032880;28;19909;-72
2022/06/08 04:12:22;;;;;;;;;;;13.70;92.60;;;;;;5032995;28;19909;-73
2022/06/08 04:14:50;;;;;;;;;;;13.60;92.80;;;;;;5032916;28;20273;-73
2022/06/08 04:17:17;;;;;;;;;;;13.60;92.80;;;;;;5035098;28;19917;-73
2022/06/08 04:19:44;;;;;;;;;;;13.70;92.70;;;;;;5036523;28;19913;-73
2022/06/08 04:22:10;;;;;;;;;;;13.60;93.10;;;;;;5036941;28;19913;-73
2022/06/08 04:24:37;;;;;;;;;;;13.70;93.00;;;;;;5036724;28;19912;-73
2022/06/08 04:27:04;;;;;;;;;;;13.60;92.90;;;;;;5019065;28;19913;-73
2022/06/08 04:29:31;;;;;;;;;;;13.60;93.50;;;;;;5036602;28;20357;-73
2022/06/08 04:31:58;;;;;;;;;;;13.70;93.70;;;;;;5036798;28;19920;-73
2022/06/08 04:34:24;;;;;;;;;;;13.70;94.10;;;;;;5036381;28;19953;-73
2022/06/08 04:36:51;;;;;;;;;;;13.70;93.40;;;;;;5036677;28;20459;-73
2022/06/08 04:39:18;;;;;;;;;;;13.70;92.50;;;;;;5036534;28;19959;-73
2022/06/08 04:41:45;;;;;;;;;;;13.70;92.30;;;;;;5036416;28;19909;-73
2022/06/08 04:44:12;;;;;;;;;;;13.60;92.90;;;;;;5036386;28;19924;-73
2022/06/08 04:46:40;;;;;;;;;;;13.70;92.70;;;;;;5036203;28;19913;-72
2022/06/08 04:49:08;;;;;;;;;;;13.70;92.40;;;;;;5036288;28;19963;-74
2022/06/08 04:51:35;;;;;;;;;;;13.60;92.10;;;;;;5035683;28;19932;-72
2022/06/08 04:54:02;;;;;;;;;;;13.60;92.40;;;;;;5036395;28;20014;-74
2022/06/08 04:56:29;;;;;;;;;;;13.60;92.40;;;;;;5035939;28;19987;-74
2022/06/08 04:58:55;;;;;;;;;;;13.60;92.70;;;;;;5036057;28;19960;-74
2022/06/08 05:01:22;;;;;;;;;;;13.60;92.60;;;;;;5036253;28;19909;-74
2022/06/08 05:03:49;;;;;;;;;;;13.50;92.80;;;;;;5035805;28;20364;-74
2022/06/08 05:06:16;;;;;;;;;;;13.50;92.80;;;;;;5035611;28;19920;-73
2022/06/08 05:08:43;;;;;;;;;;;13.50;93.00;;;;;;5035888;28;20300;-74
2022/06/08 05:11:10;;;;;;;;;;;13.50;93.30;;;;;;5035924;28;19979;-73
2022/06/08 05:13:37;;;;;;;;;;;13.50;93.30;;;;;;5035440;28;19959;-74
2022/06/08 05:16:04;;;;;;;;;;;13.50;93.40;;;;;;5035539;28;19971;-74
2022/06/08 05:18:31;;;;;;;;;;;13.60;94.00;;;;;;5035395;28;19955;-74
2022/06/08 05:20:58;;;;;;;;;;;13.60;93.20;;;;;;5035257;28;19909;-74
2022/06/08 05:23:27;;;;;;;;;;;13.60;92.80;;;;;;5035167;28;20108;-73
2022/06/08 05:25:54;;;;;;;;;;;13.50;92.70;;;;;;5035223;28;19913;-74
2022/06/08 05:28:21;;;;;;;;;;;13.50;92.70;;;;;;5034851;28;20004;-74
2022/06/08 05:30:49;;;;;;;;;;;13.50;93.10;;;;;;5035432;28;20427;-74
2022/06/08 05:33:16;;;;;;;;;;;13.50;92.80;;;;;;5035270;28;19949;-74
2022/06/08 05:35:44;;;;;;;;;;;13.40;92.80;;;;;;5035047;28;20000;-73
2022/06/08 05:38:11;;;;;;;;;;;13.40;93.00;;;;;;5035210;28;20375;-74
2022/06/08 05:40:38;;;;;;;;;;;13.40;93.30;;;;;;5035025;28;19909;-75
2022/06/08 05:43:05;;;;;;;;;;;13.40;93.60;;;;;;5035204;28;19921;-75
2022/06/08 05:45:33;;;;;;;;;;;13.40;94.10;;;;;;5034927;28;19918;-74
2022/06/08 05:48:00;;;;;;;;;;;13.40;93.60;;;;;;5035118;28;19956;-74
2022/06/08 05:50:27;;;;;;;;;;;13.40;94.30;;;;;;5034922;28;19916;-74
2022/06/08 05:52:54;;;;;;;;;;;13.40;94.00;;;;;;5034294;28;20031;-73
2022/06/08 05:55:22;;;;;;;;;;;13.30;94.00;;;;;;5035069;28;19917;-73
2022/06/08 05:57:51;;;;;;;;;;;13.40;94.10;;;;;;5034809;28;19909;-74
2022/06/08 06:00:19;;;;;;;;;;;13.30;94.20;;;;;;5035026;28;19909;-74
2022/06/08 06:02:46;;;;;;;;;;;13.30;94.20;;;;;;5035062;28;19987;-74
2022/06/08 06:05:14;;;;;;;;;;;13.20;94.40;;;;;;5034899;28;20011;-74
2022/06/08 06:07:42;;;;;;;;;;;13.20;94.60;;;;;;5034506;28;19909;-75
2022/06/08 06:10:10;;;;;;;;;;;13.10;95.60;;;;;;5034759;28;19916;-74
2022/06/08 06:12:36;;;;;;;;;;;13.10;95.00;;;;;;5034795;28;19909;-74
2022/06/08 06:15:03;;;;;;;;;;;13.10;94.40;;;;;;5034851;28;19909;-74
2022/06/08 06:17:30;;;;;;;;;;;13.00;94.40;;;;;;5034597;28;19909;-74
2022/06/08 06:19:57;;;;;;;;;;;13.00;94.70;;;;;;5034632;28;19924;-75
2022/06/08 06:22:25;;;;;;;;;;;13.00;94.40;;;;;;5034718;28;20391;-74
2022/06/08 06:24:51;;;;;;;;;;;12.90;94.70;;;;;;5034546;28;19913;-75
2022/06/08 06:27:19;;;;;;;;;;;12.90;94.70;;;;;;5034433;28;20372;-75
2022/06/08 06:29:46;;;;;;;;;;;12.80;94.40;;;;;;5034348;28;19913;-75
2022/06/08 06:32:16;;;;;;;;;;;12.90;94.60;;;;;;5034540;28;19910;-74
2022/06/08 06:34:43;;;;;;;;;;;12.80;94.60;;;;;;5034216;28;20249;-74
2022/06/08 06:37:10;;;;;;;;;;;12.80;94.10;;;;;;5034474;28;20355;-74
2022/06/08 06:39:37;;;;;;;;;;;12.80;94.40;;;;;;5033407;28;19910;-75
2022/06/08 06:42:04;;;;;;;;;;;12.70;94.70;;;;;;5034282;28;19943;-75
2022/06/08 06:44:30;;;;;;;;;;;12.70;95.00;;;;;;5034238;28;19913;-75
2022/06/08 06:46:57;;;;;;;;;;;12.60;95.00;;;;;;5034212;28;19932;-75
2022/06/08 06:49:24;;;;;;;;;;;12.60;95.30;;;;;;5033909;28;19913;-75
2022/06/08 06:51:52;;;;;;;;;;;12.50;95.50;;;;;;5031376;28;20324;-75
2022/06/08 06:54:19;;;;;;;;;;;12.50;95.60;;;;;;5032048;28;20376;-75
2022/06/08 06:56:46;;;;;;;;;;;12.50;96.10;;;;;;5031978;28;19917;-75
2022/06/08 06:59:13;;;;;;;;;;;12.50;96.30;;;;;;5031908;28;20346;-75
2022/06/08 07:01:41;;;;;;;;;;;12.40;96.10;;;;;;5031532;28;19916;-75
2022/06/08 07:04:08;;;;;;;;;;;12.40;96.50;;;;;;5031234;28;19960;-74
2022/06/08 07:06:34;;;;;;;;;;;12.30;96.50;;;;;;5031627;28;19936;-75
2022/06/08 07:09:01;;;;;;;;;;;12.30;96.50;;;;;;5031640;28;20378;-74
2022/06/08 07:11:41;;;;;;;;;;;12.30;96.60;;;;;;5031407;28;19913;-75
2022/06/08 07:14:08;;;;;;;;;;;12.20;96.70;;;;;;5031525;28;20284;-75
2022/06/08 07:16:35;;;;;;;;;;;12.20;96.80;;;;;;5031363;28;20430;-74
2022/06/08 07:19:04;;;;;;;;;;;12.10;96.80;;;;;;5030681;28;19909;-74
2022/06/08 07:21:31;;;;;;;;;;;12.10;97.40;;;;;;5031078;28;19913;-75
2022/06/08 07:23:58;;;;;;;;;;;12.10;97.00;;;;;;5031284;28;19921;-74
2022/06/08 07:26:25;;;;;;;;;;;12.10;97.20;;;;;;5031341;28;19913;-74
2022/06/08 07:28:52;;;;;;;;;;;12.10;97.50;;;;;;5031294;28;19909;-74
2022/06/08 07:31:19;;;;;;;;;;;12.00;97.30;;;;;;5046103;28;19909;-75
2022/06/08 07:33:46;;;;;;;;;;;12.00;97.60;;;;;;5030718;28;20283;-75
2022/06/08 07:36:13;;;;;;;;;;;11.90;97.70;;;;;;5030970;28;19952;-73
2022/06/08 07:38:40;;;;;;;;;;;11.90;97.60;;;;;;5031194;28;19909;-73
2022/06/08 07:41:07;;;;;;;;;;;11.80;97.70;;;;;;5031217;28;20372;-75
2022/06/08 07:43:34;;;;;;;;;;;11.80;98.00;;;;;;5030387;28;20357;-75
2022/06/08 07:46:01;;;;;;;;;;;11.80;98.00;;;;;;5031051;28;19923;-74
2022/06/08 07:51:12;;;;;;;;;;;11.70;98.50;;;;;;5030842;28;19974;-74
2022/06/08 07:53:40;;;;;;;;;;;11.60;98.70;;;;;;5030579;28;19928;-74
2022/06/08 07:56:07;;;;;;;;;;;11.60;98.60;;;;;;5046020;28;20391;-75
2022/06/08 07:58:34;;;;;;;;;;;11.60;98.80;;;;;;5030554;28;19935;-73
2022/06/08 08:01:00;;;;;;;;;;;11.50;98.70;;;;;;5030760;28;20399;-74
2022/06/08 08:03:28;;;;;;;;;;;11.50;98.50;;;;;;5030791;28;19936;-74
2022/06/08 08:05:54;;;;;;;;;;;11.40;98.50;;;;;;5030499;28;19917;-75
2022/06/08 08:08:21;;;;;;;;;;;11.40;98.80;;;;;;5030821;28;19913;-75
2022/06/08 08:10:48;;;;;;;;;;;11.40;98.90;;;;;;5030641;28;19909;-75
2022/06/08 08:13:15;;;;;;;;;;;11.40;98.60;;;;;;5030773;28;19959;-75
2022/06/08 08:15:42;;;;;;;;;;;11.30;98.60;;;;;;5030478;28;19944;-77
2022/06/08 08:18:09;;;;;;;;;;;11.30;98.50;;;;;;5030513;28;20051;-75
2022/06/08 08:20:36;;;;;;;;;;;11.30;98.30;;;;;;5030782;28;19910;-76
2022/06/08 08:23:03;;;;;;;;;;;11.20;98.80;;;;;;5030217;28;19918;-74
2022/06/08 08:25:30;;;;;;;;;;;11.20;98.50;;;;;;5046261;28;19909;-74
2022/06/08 08:27:58;;;;;;;;;;;11.20;98.80;;;;;;5030672;28;19917;-75
2022/06/08 08:30:27;;;;;;;;;;;11.10;98.40;;;;;;5030623;28;20012;-75
2022/06/08 08:32:54;;;;;;;;;;;11.10;98.60;;;;;;5030741;28;20323;-76
2022/06/08 08:35:21;;;;;;;;;;;11.10;98.60;;;;;;5030371;28;20382;-75
2022/06/08 08:37:48;;;;;;;;;;;11.10;99.00;;;;;;5016205;28;19910;-75
2022/06/08 08:40:26;;;;;;;;;;;11.00;99.00;;;;;;5010694;28;19910;-75
2022/06/08 08:42:53;;;;;;;;;;;11.00;98.70;;;;;;5010451;28;20346;-75
2022/06/08 08:45:19;;;;;;;;;;;10.90;99.10;;;;;;5010743;28;20004;-75
2022/06/08 08:47:55;;;;;;;;;;;10.90;99.70;;;;;;5010409;28;19953;-75
2022/06/08 08:50:22;;;;;;;;;;;10.90;99.00;;;;;;5025309;28;19928;-75
2022/06/08 08:52:51;;;;;;;;;;;10.80;99.00;;;;;;5010052;28;19925;-76
2022/06/08 08:55:23;;;;;;;;;;;10.90;99.00;;;;;;5010702;28;19940;-75
2022/06/08 08:58:19;;;;;;;;;;;10.80;99.20;;;;;;5010549;28;19956;-75
2022/06/08 09:00:50;;;;;;;;;;;10.80;99.50;;;;;;5010114;28;19987;-75
2022/06/08 09:03:20;;;;;;;;;;;10.70;99.30;;;;;;5011911;28;19956;-75
2022/06/08 09:05:48;;;;;;;;;;;10.80;99.50;;;;;;5014172;28;19910;-75
2022/06/08 09:08:16;;;;;;;;;;;10.80;99.30;;;;;;5015977;28;19909;-75
2022/06/08 09:10:44;;;;;;;;;;;10.70;99.40;;;;;;5016251;28;19910;-76
2022/06/08 09:13:12;;;;;;;;;;;10.70;99.50;;;;;;5016146;28;19917;-77
2022/06/08 09:15:56;;;;;;;;;;;10.60;99.50;;;;;;5015909;28;20003;-75
2022/06/08 09:18:31;;;;;;;;;;;10.60;99.70;;;;;;5015928;28;19909;-75
2022/06/08 09:20:58;;;;;;;;;;;10.60;99.90;;;;;;5015476;28;19932;-77
2022/06/08 09:23:25;;;;;;;;;;;10.50;99.70;;;;;;5015831;28;19921;-76
2022/06/08 09:26:07;;;;;;;;;;;10.60;99.90;;;;;;5015812;28;19960;-76
2022/06/08 09:28:34;;;;;;;;;;;10.50;99.70;;;;;;5015828;28;19909;-74
2022/06/08 09:31:01;;;;;;;;;;;10.40;99.60;;;;;;5015757;28;19916;-75
2022/06/08 09:33:37;;;;;;;;;;;10.50;99.90;;;;;;5015553;28;19996;-75
2022/06/08 09:36:09;;;;;;;;;;;10.50;99.90;;;;;;5015156;28;20378;-75
2022/06/08 09:38:42;;;;;;;;;;;10.50;99.90;;;;;;5015728;28;19909;-75
2022/06/08 09:41:27;;;;;;;;;;;10.50;99.90;;;;;;5015725;28;20368;-76
2022/06/08 09:44:06;;;;;;;;;;;10.50;99.90;;;;;;5015185;28;20386;-74
2022/06/08 09:52:42;;;;;;;;;;;10.40;99.80;;;;;;5014939;28;19968;-75
2022/06/08 09:55:31;;;;;;;;;;;10.40;99.60;;;;;;5014629;28;20139;-75
2022/06/08 09:58:23;;;;;;;;;;;10.40;99.90;;;;;;5015557;28;19937;-75
2022/06/08 10:01:10;;;;;;;;;;;10.40;99.90;;;;;;5015308;28;20280;-75
2022/06/08 10:03:55;;;;;;;;;;;10.40;99.90;;;;;;5014873;28;19961;-74
2022/06/08 10:06:28;;;;;;;;;;;10.30;99.80;;;;;;5014729;28;19909;-74
2022/06/08 10:08:58;;;;;;;;;;;10.30;99.90;;;;;;5015287;28;19910;-74
2022/06/08 10:11:34;;;;;;;;;;;10.30;99.90;;;;;;5015151;28;19917;-74
2022/06/08 10:14:05;;;;;;;;;;;10.30;99.90;;;;;;5015130;28;19909;-75
2022/06/08 10:16:34;;;;;;;;;;;10.30;99.90;;;;;;5015382;28;19910;-75
2022/06/08 10:19:05;;;;;;;;;;;10.30;99.90;;;;;;5014884;28;20230;-75
2022/06/08 10:21:34;;;;;;;;;;;10.30;99.90;;;;;;5014138;28;19916;-75
2022/06/08 10:24:00;;;;;;;;;;;10.30;99.90;;;;;;5014776;28;19917;-75
2022/06/08 10:26:35;;;;;;;;;;;10.30;99.90;;;;;;5014878;28;19992;-75
2022/06/08 10:29:10;;;;;;;;;;;10.30;99.90;;;;;;5014770;28;19909;-75
2022/06/08 10:31:44;;;;;;;;;;;10.20;99.90;;;;;;5014589;28;20047;-75
2022/06/08 10:34:14;;;;;;;;;;;10.20;99.90;;;;;;5014392;28;19998;-75
2022/06/08 10:36:41;;;;;;;;;;;10.20;99.90;;;;;;5014241;28;19909;-75
2022/06/08 10:39:08;;;;;;;;;;;10.10;99.90;;;;;;5014432;28;19917;-75
2022/06/08 10:44:42;;;;;;;;;;;10.10;99.90;;;;;;5014546;28;20090;-74
2022/06/08 10:47:18;;;;;;;;;;;10.10;99.90;;;;;;5014452;28;19949;-75
2022/06/08 10:49:47;;;;;;;;;;;10.20;99.90;;;;;;5013756;28;19960;-75
2022/06/08 10:52:34;;;;;;;;;;;10.20;99.90;;;;;;5014281;28;19921;-74
2022/06/08 10:55:19;;;;;;;;;;;10.10;99.90;;;;;;5013661;28;19956;-75
2022/06/08 10:57:51;;;;;;;;;;;10.10;99.90;;;;;;5014158;28;20361;-75
2022/06/08 11:00:24;;;;;;;;;;;10.10;99.90;;;;;;5014458;28;19955;-76
2022/06/08 11:03:02;;;;;;;;;;;10.00;99.90;;;;;;5014070;28;19918;-76
2022/06/08 11:05:37;;;;;;;;;;;10.00;99.90;;;;;;5013713;28;19909;-74
2022/06/08 11:08:10;;;;;;;;;;;9.90;99.90;;;;;;5014233;28;20308;-75
2022/06/08 11:10:53;;;;;;;;;;;9.90;99.90;;;;;;5014411;28;20353;-75
2022/06/08 11:13:26;;;;;;;;;;;9.80;99.90;;;;;;5014209;28;19952;-73
2022/06/08 11:15:53;;;;;;;;;;;9.80;99.90;;;;;;5013877;28;19917;-74
2022/06/08 11:18:25;;;;;;;;;;;9.80;99.90;;;;;;5013970;28;19917;-75
2022/06/08 11:21:04;;;;;;;;;;;9.80;99.90;;;;;;5013311;28;20336;-75
2022/06/08 11:23:32;;;;;;;;;;;9.80;99.90;;;;;;5013769;28;19957;-75
2022/06/08 11:26:05;;;;;;;;;;;9.80;99.90;;;;;;5013352;28;19910;-75
2022/06/08 11:28:31;;;;;;;;;;;9.80;99.90;;;;;;5013920;28;19949;-75
2022/06/08 11:31:00;;;;;;;;;;;9.80;99.90;;;;;;5013921;28;19964;-74
2022/06/08 11:33:45;;;;;;;;;;;9.70;99.90;;;;;;5013706;28;20008;-75
2022/06/08 11:36:11;;;;;;;;;;;9.80;99.90;;;;;;5013205;28;19910;-74
2022/06/08 11:38:46;;;;;;;;;;;9.80;99.90;;;;;;5013541;28;20315;-73
2022/06/08 11:41:25;;;;;;;;;;;9.80;99.90;;;;;;5013662;28;19909;-73
2022/06/08 11:43:52;;;;;;;;;;;9.80;99.90;;;;;;5013372;28;19918;-76
2022/06/08 11:46:45;;;;;;;;;;;9.90;99.90;;;;;;5013703;28;19910;-74
2022/06/08 11:49:33;;;;;;;;;;;10.00;99.90;;;;;;5012690;28;19914;-75
2022/06/08 11:52:16;;;;;;;;;;;9.90;99.90;;;;;;5013408;28;20003;-76
2022/06/08 11:54:42;;;;;;;;;;;9.90;99.90;;;;;;5013575;28;20357;-76
2022/06/08 11:57:16;;;;;;;;;;;9.80;99.90;;;;;;5013532;28;20384;-75
2022/06/08 11:59:44;;;;;;;;;;;9.80;99.90;;;;;;5012980;28;20374;-76
2022/06/08 12:02:20;;;;;;;;;;;9.80;99.90;;;;;;5013168;28;20376;-75
2022/06/08 12:04:50;;;;;;;;;;;9.80;99.90;;;;;;5012920;28;19956;-75
2022/06/08 12:07:35;;;;;;;;;;;9.80;99.90;;;;;;5013445;28;19918;-76
2022/06/08 12:10:06;;;;;;;;;;;9.80;99.90;;;;;;5013408;28;19917;-75
2022/06/08 12:12:34;;;;;;;;;;;9.80;99.90;;;;;;5013670;28;19910;-75
2022/06/08 12:15:18;;;;;;;;;;;9.80;99.90;;;;;;5028610;28;19967;-75
2022/06/08 12:17:45;;;;;;;;;;;9.80;99.90;;;;;;5013014;28;19940;-74
2022/06/08 12:20:47;;;;;;;;;;;9.80;99.90;;;;;;5012804;28;20277;-75
2022/06/08 12:23:14;;;;;;;;;;;9.70;99.90;;;;;;5011119;28;20323;-74
2022/06/08 12:25:41;;;;;;;;;;;9.70;99.90;;;;;;4995410;28;19975;-73
2022/06/08 12:28:08;;;;;;;;;;;9.60;99.90;;;;;;5013285;28;19909;-75
2022/06/08 12:30:37;;;;;;;;;;;9.70;99.90;;;;;;5013265;28;19909;-75
2022/06/08 12:33:24;;;;;;;;;;;9.70;99.90;;;;;;5013102;28;19916;-74
2022/06/08 12:36:01;;;;;;;;;;;9.80;99.90;;;;;;5012373;28;19913;-74
2022/06/08 12:38:32;;;;;;;;;;;9.80;99.90;;;;;;5015495;28;20375;-74
2022/06/08 12:41:12;;;;;;;;;;;9.80;99.90;;;;;;5016799;28;19912;-74
2022/06/08 12:43:46;;;;;;;;;;;9.80;99.90;;;;;;5016082;28;20279;-74
2022/06/08 12:46:13;;;;;;;;;;;9.90;99.90;;;;;;5016666;28;20033;-74
2022/06/08 12:48:42;;;;;;;;;;;9.80;99.90;;;;;;5016661;28;20415;-77
2022/06/08 12:51:27;;;;;;;;;;;9.90;99.90;;;;;;5016744;28;19916;-76
2022/06/08 12:53:54;;;;;;;;;;;9.80;99.90;;;;;;5014867;28;20315;-77
2022/06/08 12:56:22;;;;;;;;;;;9.80;99.90;;;;;;5016680;28;19915;-77
2022/06/08 12:58:50;;;;;;;;;;;9.80;99.90;;;;;;5016535;28;19941;-73
2022/06/08 13:01:18;;;;;;;;;;;9.80;99.90;;;;;;5016512;28;19910;-74
2022/06/08 13:03:45;;;;;;;;;;;9.80;99.90;;;;;;5016117;28;19952;-74
2022/06/08 13:06:12;;;;;;;;;;;9.90;99.90;;;;;;5016366;28;19913;-75
2022/06/08 13:08:39;;;;;;;;;;;9.90;99.80;;;;;;5016352;28;19955;-74
2022/06/08 13:11:11;;;;;;;;;;;9.80;99.90;;;;;;5016333;28;19959;-74
2022/06/08 13:13:39;;;;;;;;;;;9.80;99.90;;;;;;5016157;28;19910;-74
2022/06/08 13:16:14;;;;;;;;;;;9.80;99.90;;;;;;5016328;28;19941;-74
2022/06/08 13:18:41;;;;;;;;;;;9.90;99.90;;;;;;5016209;28;19910;-75
2022/06/08 13:21:09;;;;;;;;;;;9.90;99.90;;;;;;5016166;28;19916;-75
2022/06/08 13:23:36;;;;;;;;;;;10.00;99.90;;;;;;5015772;28;20262;-75
2022/06/08 13:26:03;;;;;;;;;;;9.90;99.90;;;;;;5016025;28;19910;-75
2022/06/08 13:28:32;;;;;;;;;;;9.90;99.90;;;;;;5015921;28;20368;-75
2022/06/08 13:31:05;;;;;;;;;;;9.90;99.90;;;;;;5016018;28;19916;-76
2022/06/08 13:36:23;;;;;;;;;;;9.70;99.90;;;;;;5016374;28;19917;-75
2022/06/08 13:39:11;;;;;;;;;;;9.60;99.90;;;;;;5015938;28;19910;-75
2022/06/08 13:41:39;;;;;;;;;;;9.60;99.90;;;;;;5015528;28;19956;-75
2022/06/08 13:44:11;;;;;;;;;;;9.50;99.90;;;;;;5015621;28;19970;-75
2022/06/08 13:46:38;;;;;;;;;;;9.50;99.90;;;;;;5017205;28;20364;-73
2022/06/08 13:49:04;;;;;;;;;;;9.40;99.90;;;;;;5015345;28;19983;-75
2022/06/08 13:51:31;;;;;;;;;;;9.40;99.90;;;;;;5015352;28;19963;-75
2022/06/08 13:53:58;;;;;;;;;;;9.40;99.90;;;;;;5015536;28;19921;-74
2022/06/08 13:56:25;;;;;;;;;;;9.40;99.90;;;;;;5015496;28;19917;-74
2022/06/08 13:58:52;;;;;;;;;;;9.40;99.90;;;;;;5015773;28;19910;-75
2022/06/08 14:01:22;;;;;;;;;;;9.40;99.90;;;;;;5015298;28;19914;-74
2022/06/08 14:03:49;;;;;;;;;;;9.40;99.90;;;;;;5015131;28;19923;-74
2022/06/08 14:14:35;;;;;;;;;;;9.60;99.90;;;;;;5015592;28;19959;-76
2022/06/08 14:17:04;;;;;;;;;;;9.60;99.90;;;;;;5014957;28;19916;-76
2022/06/08 14:19:37;;;;;;;;;;;9.60;99.90;;;;;;5014935;28;20389;-75
2022/06/08 14:22:04;;;;;;;;;;;9.70;99.90;;;;;;5015160;28;19916;-76
2022/06/08 14:24:36;;;;;;;;;;;9.60;99.90;;;;;;5015010;28;19924;-75
2022/06/08 14:27:03;;;;;;;;;;;9.60;99.90;;;;;;5014985;28;19969;-75
2022/06/08 14:29:30;;;;;;;;;;;9.60;99.90;;;;;;5014917;28;19909;-76
2022/06/08 14:31:58;;;;;;;;;;;9.70;99.90;;;;;;5014786;28;19913;-75
2022/06/08 14:34:27;;;;;;;;;;;9.70;99.90;;;;;;5014883;28;20228;-75
2022/06/08 14:36:55;;;;;;;;;;;9.70;99.90;;;;;;5014837;28;20005;-75
2022/06/08 14:39:23;;;;;;;;;;;9.80;99.90;;;;;;5014846;28;20008;-75
2022/06/08 14:41:51;;;;;;;;;;;9.80;99.90;;;;;;5014546;28;19914;-76
2022/06/08 14:44:20;;;;;;;;;;;9.80;99.90;;;;;;5014576;28;19924;-76
2022/06/08 14:46:51;;;;;;;;;;;9.80;99.70;;;;;;5014471;28;19941;-76
2022/06/08 14:49:26;;;;;;;;;;;9.90;99.90;;;;;;5014590;28;20004;-76
2022/06/08 14:51:55;;;;;;;;;;;9.90;99.90;;;;;;5014258;28;19909;-76
2022/06/08 14:54:22;;;;;;;;;;;10.00;99.50;;;;;;5014602;28;20339;-77
2022/06/08 14:56:53;;;;;;;;;;;9.90;99.60;;;;;;5014433;28;19909;-75
2022/06/08 14:59:22;;;;;;;;;;;10.00;99.90;;;;;;5014517;28;19916;-76
2022/06/08 15:01:51;;;;;;;;;;;10.00;99.60;;;;;;5013307;28;19913;-76
2022/06/08 15:04:19;;;;;;;;;;;10.00;99.70;;;;;;5014320;28;19924;-77
2022/06/08 15:06:47;;;;;;;;;;;10.00;99.90;;;;;;4996616;28;19910;-76